Time;durP1;ratioP1;P1;durP2;ratioP2;P2;SDS_P1;SDS_P2;PMS_P1;PMS_P2;Temp;Humidity;BMP_temperature;BMP_pressure;BME280_temperature;BME280_humidity;BME280_pressure;Samples;Min_cycle;Max_cycle;Signal;HPM_P1;HPM_P2
2023/10/10 00:00:04;;;;;;;1999.90;999.90;;;;;;;;;;5065120;28;20590;-59
2023/10/10 00:02:32;;;;;;;1999.90;999.90;;;;;;;;;;5064749;28;20194;-60
2023/10/10 00:05:05;;;;;;;1999.90;999.90;;;;;;;;;;5063329;28;20195;-59
2023/10/10 00:07:37;;;;;;;1999.90;999.90;;;;;;;;;;5064989;28;20806;-59
2023/10/10 00:10:04;;;;;;;1999.90;999.90;;;;;;;;;;5064692;28;20203;-61
2023/10/10 00:12:35;;;;;;;1999.90;999.90;;;;;;;;;;5064380;28;20279;-60
2023/10/10 00:15:13;;;;;;;1999.90;999.90;;;;;;;;;;5064779;28;20639;-63
2023/10/10 00:17:42;;;;;;;1999.90;999.90;;;;;;;;;;5064930;28;20708;-64
2023/10/10 00:20:17;;;;;;;1999.90;999.90;;;;;;;;;;5064274;28;20580;-59
2023/10/10 00:22:48;;;;;;;1999.90;999.90;;;;;;;;;;5063166;28;20198;-60
2023/10/10 00:25:28;;;;;;;1999.90;999.90;;;;;;;;;;5064075;28;20736;-60
2023/10/10 00:27:59;;;;;;;1999.90;999.90;;;;;;;;;;5064646;28;20203;-59
2023/10/10 00:30:33;;;;;;;1999.90;999.90;;;;;;;;;;5062969;28;20611;-59
2023/10/10 00:33:03;;;;;;;1999.90;999.90;;;;;;;;;;5068332;28;20926;-59
2023/10/10 00:35:32;;;;;;;1999.90;999.90;;;;;;;;;;5067967;28;20732;-60
2023/10/10 00:38:05;;;;;;;1999.90;999.90;;;;;;;;;;5068328;28;20237;-59
2023/10/10 00:40:38;;;;;;;1999.90;999.90;;;;;;;;;;5068953;28;20187;-62
2023/10/10 00:43:13;;;;;;;1999.90;999.90;;;;;;;;;;5067373;28;20187;-59
2023/10/10 00:45:41;;;;;;;1999.90;999.90;;;;;;;;;;5068231;28;20229;-59
2023/10/10 00:48:10;;;;;;;1999.90;999.90;;;;;;;;;;5067602;28;20762;-58
2023/10/10 00:50:39;;;;;;;1999.90;999.90;;;;;;;;;;5068046;28;20241;-58
2023/10/10 00:53:11;;;;;;;1999.90;999.90;;;;;;;;;;5067421;28;20249;-59
2023/10/10 00:55:40;;;;;;;1999.90;999.90;;;;;;;;;;5067985;28;20190;-59
2023/10/10 00:58:08;;;;;;;1999.90;999.90;;;;;;;;;;5067665;28;20229;-60
2023/10/10 01:00:42;;;;;;;1999.90;999.90;;;;;;;;;;5066374;28;20294;-59
2023/10/10 01:03:20;;;;;;;1999.90;999.90;;;;;;;;;;5066920;28;20203;-59
2023/10/10 01:05:58;;;;;;;1999.90;999.90;;;;;;;;;;5068063;28;20182;-59
2023/10/10 01:08:30;;;;;;;1999.90;999.90;;;;;;;;;;5067299;28;20215;-59
2023/10/10 01:11:03;;;;;;;1999.90;999.90;;;;;;;;;;5067643;28;20175;-59
2023/10/10 01:13:33;;;;;;;1999.90;999.90;;;;;;;;;;5067128;28;20180;-59
2023/10/10 01:16:05;;;;;;;1999.90;999.90;;;;;;;;;;5067637;28;20865;-59
2023/10/10 01:18:32;;;;;;;1999.90;999.90;;;;;;;;;;5067826;28;20707;-59
2023/10/10 01:21:02;;;;;;;1999.90;999.90;;;;;;;;;;5067041;28;20194;-59
2023/10/10 01:23:33;;;;;;;1999.90;999.90;;;;;;;;;;5067047;28;20269;-60
2023/10/10 01:26:05;;;;;;;1999.90;999.90;;;;;;;;;;5065977;28;20730;-61
2023/10/10 01:28:34;;;;;;;1999.90;999.90;;;;;;;;;;5067744;28;21055;-59
2023/10/10 01:31:05;;;;;;;1999.90;999.90;;;;;;;;;;5066919;28;20237;-60
2023/10/10 01:33:41;;;;;;;1999.90;999.90;;;;;;;;;;5066941;28;20187;-59
2023/10/10 01:36:19;;;;;;;1999.90;999.90;;;;;;;;;;5066839;28;20266;-60
2023/10/10 01:39:08;;;;;;;1999.90;999.90;;;;;;;;;;5067305;28;20574;-59
2023/10/10 01:41:40;;;;;;;1999.90;999.90;;;;;;;;;;5066927;28;20287;-59
2023/10/10 01:44:11;;;;;;;1999.90;999.90;;;;;;;;;;5053741;28;20214;-59
2023/10/10 01:46:40;;;;;;;1999.90;999.90;;;;;;;;;;5046786;28;20180;-59
2023/10/10 01:49:12;;;;;;;1999.90;999.90;;;;;;;;;;5046827;28;20219;-59
2023/10/10 01:51:42;;;;;;;1999.90;999.90;;;;;;;;;;5046978;28;20254;-59
2023/10/10 01:54:14;;;;;;;1999.90;999.90;;;;;;;;;;5046991;28;20329;-58
2023/10/10 01:56:42;;;;;;;1999.90;999.90;;;;;;;;;;5046858;28;20623;-59
2023/10/10 01:59:13;;;;;;;1999.90;999.90;;;;;;;;;;5046701;28;20199;-59
2023/10/10 02:01:42;;;;;;;1999.90;999.90;;;;;;;;;;5046569;28;20537;-59
2023/10/10 02:04:10;;;;;;;1999.90;999.90;;;;;;;;;;5046228;28;20192;-59
2023/10/10 02:06:40;;;;;;;1999.90;999.90;;;;;;;;;;5045380;28;20559;-59
2023/10/10 02:09:19;;;;;;;1999.90;999.90;;;;;;;;;;5046519;28;20261;-58
2023/10/10 02:11:53;;;;;;;1999.90;999.90;;;;;;;;;;5046708;28;20188;-59
2023/10/10 02:14:25;;;;;;;1999.90;999.90;;;;;;;;;;5045651;28;20194;-59
2023/10/10 02:16:54;;;;;;;1999.90;999.90;;;;;;;;;;5046436;28;20555;-59
2023/10/10 02:19:32;;;;;;;1999.90;999.90;;;;;;;;;;5046160;28;20685;-59
2023/10/10 02:22:19;;;;;;;1999.90;999.90;;;;;;;;;;5044925;28;20238;-59
2023/10/10 02:25:08;;;;;;;1999.90;999.90;;;;;;;;;;5065618;28;20296;-58
2023/10/10 02:27:53;;;;;;;1999.90;999.90;;;;;;;;;;5065549;28;20222;-59
2023/10/10 02:30:34;;;;;;;1999.90;999.90;;;;;;;;;;5065599;28;20179;-58
2023/10/10 02:33:12;;;;;;;1999.90;999.90;;;;;;;;;;5066195;28;20183;-59
2023/10/10 02:35:54;;;;;;;1999.90;999.90;;;;;;;;;;5065465;28;20175;-59
2023/10/10 02:38:22;;;;;;;1999.90;999.90;;;;;;;;;;5064302;28;20562;-58
2023/10/10 02:40:55;;;;;;;1999.90;999.90;;;;;;;;;;5065939;28;20227;-59
2023/10/10 02:43:45;;;;;;;1999.90;999.90;;;;;;;;;;5065170;28;20570;-58
2023/10/10 02:46:17;;;;;;;1999.90;999.90;;;;;;;;;;5065438;28;20884;-59
2023/10/10 02:48:45;;;;;;;1999.90;999.90;;;;;;;;;;5065110;28;20211;-59
2023/10/10 02:51:15;;;;;;;1999.90;999.90;;;;;;;;;;5064747;28;20240;-59
2023/10/10 02:53:46;;;;;;;1999.90;999.90;;;;;;;;;;5064835;28;20179;-61
2023/10/10 02:56:18;;;;;;;1999.90;999.90;;;;;;;;;;5064230;28;20838;-61
2023/10/10 02:58:47;;;;;;;1999.90;999.90;;;;;;;;;;5065295;28;20207;-58
2023/10/10 03:01:49;;;;;;;1999.90;999.90;;;;;;;;;;5065268;28;20195;-60
2023/10/10 03:04:09;;;;;;;1999.90;999.90;;;;;;;;;;5063746;28;20195;-59
2023/10/10 03:06:37;;;;;;;1999.90;999.90;;;;;;;;;;5065211;28;20268;-59
2023/10/10 03:09:13;;;;;;;1999.90;999.90;;;;;;;;;;5065365;28;20215;-60
2023/10/10 03:12:03;;;;;;;1999.90;999.90;;;;;;;;;;5063798;28;20446;-58
2023/10/10 03:14:33;;;;;;;1999.90;999.90;;;;;;;;;;5064763;28;20183;-58
2023/10/10 03:17:03;;;;;;;1999.90;999.90;;;;;;;;;;5065765;28;20183;-59
2023/10/10 03:19:38;;;;;;;1999.90;999.90;;;;;;;;;;5065060;28;20186;-58
2023/10/10 03:22:29;;;;;;;1999.90;999.90;;;;;;;;;;5065360;28;20216;-58
2023/10/10 03:25:08;;;;;;;1999.90;999.90;;;;;;;;;;5045526;28;20729;-58
2023/10/10 03:27:49;;;;;;;1999.90;999.90;;;;;;;;;;5044981;28;20198;-58
2023/10/10 03:30:20;;;;;;;1999.90;999.90;;;;;;;;;;5045541;28;20192;-58
2023/10/10 03:33:08;;;;;;;1999.90;999.90;;;;;;;;;;5044994;28;21049;-59
2023/10/10 03:35:52;;;;;;;1999.90;999.90;;;;;;;;;;5057697;28;20191;-58
2023/10/10 05:25:56;;;;;;;1999.90;999.90;;;;;;;;;;5067376;28;20927;-58
2023/10/10 05:28:29;;;;;;;1999.90;999.90;;;;;;;;;;5067261;28;20215;-59
2023/10/10 05:30:57;;;;;;;1999.90;999.90;;;;;;;;;;5067373;28;20274;-59
2023/10/10 05:33:26;;;;;;;1999.90;999.90;;;;;;;;;;5067010;28;20229;-58
2023/10/10 05:35:58;;;;;;;1999.90;999.90;;;;;;;;;;5066555;28;20202;-58
2023/10/10 05:38:27;;;;;;;1999.90;999.90;;;;;;;;;;5067127;28;20182;-58
2023/10/10 05:40:56;;;;;;;1999.90;999.90;;;;;;;;;;5066446;28;20692;-59
2023/10/10 05:43:31;;;;;;;1999.90;999.90;;;;;;;;;;5066933;28;20275;-62
2023/10/10 05:45:58;;;;;;;1999.90;999.90;;;;;;;;;;5066588;28;20186;-64
2023/10/10 05:48:26;;;;;;;1999.90;999.90;;;;;;;;;;5066593;28;20218;-59
2023/10/10 05:50:54;;;;;;;1999.90;999.90;;;;;;;;;;5065710;28;20242;-58
2023/10/10 05:53:21;;;;;;;1999.90;999.90;;;;;;;;;;5066690;28;20199;-58
2023/10/10 05:55:53;;;;;;;1999.90;999.90;;;;;;;;;;5066354;28;20294;-59
2023/10/10 05:58:21;;;;;;;1999.90;999.90;;;;;;;;;;5066596;28;20194;-60
2023/10/10 06:00:49;;;;;;;1999.90;999.90;;;;;;;;;;5066893;28;20264;-61
2023/10/10 06:03:17;;;;;;;1999.90;999.90;;;;;;;;;;5066287;28;20191;-59
2023/10/10 06:05:45;;;;;;;1999.90;999.90;;;;;;;;;;5066371;28;20195;-64
2023/10/10 06:08:12;;;;;;;1999.90;999.90;;;;;;;;;;5064912;28;20222;-63
2023/10/10 06:10:40;;;;;;;1999.90;999.90;;;;;;;;;;5064739;28;20252;-59
2023/10/10 06:13:11;;;;;;;1999.90;999.90;;;;;;;;;;5065764;28;20202;-58
2023/10/10 06:15:38;;;;;;;1999.90;999.90;;;;;;;;;;5055143;28;20204;-58
2023/10/10 06:18:15;;;;;;;1999.90;999.90;;;;;;;;;;5046437;28;20222;-61
2023/10/10 06:20:42;;;;;;;1999.90;999.90;;;;;;;;;;5045957;28;20193;-62
2023/10/10 06:23:11;;;;;;;1999.90;999.90;;;;;;;;;;5052506;28;20199;-60
2023/10/10 06:25:38;;;;;;;1999.90;999.90;;;;;;;;;;5064472;28;20223;-63
2023/10/10 06:28:18;;;;;;;1999.90;999.90;;;;;;;;;;5065668;28;20551;-59
2023/10/10 06:30:48;;;;;;;1999.90;999.90;;;;;;;;;;5065640;28;20634;-58
2023/10/10 06:33:15;;;;;;;1999.90;999.90;;;;;;;;;;5065478;28;20202;-58
2023/10/10 06:35:52;;;;;;;1999.90;999.90;;;;;;;;;;5065663;28;20210;-62
2023/10/10 06:38:24;;;;;;;1999.90;999.90;;;;;;;;;;5066099;28;20187;-62
2023/10/10 06:40:54;;;;;;;1999.90;999.90;;;;;;;;;;5065807;28;20202;-61
2023/10/10 06:43:21;;;;;;;1999.90;999.90;;;;;;;;;;5065648;28;20264;-61
2023/10/10 06:45:54;;;;;;;1999.90;999.90;;;;;;;;;;5065680;28;20186;-61
2023/10/10 06:48:22;;;;;;;1999.90;999.90;;;;;;;;;;5066041;28;20182;-64
2023/10/10 06:50:50;;;;;;;1999.90;999.90;;;;;;;;;;5065599;28;20199;-61
2023/10/10 06:53:34;;;;;;;1999.90;999.90;;;;;;;;;;5065696;28;20202;-64
2023/10/10 06:56:14;;;;;;;1999.90;999.90;;;;;;;;;;5065369;28;20626;-61
2023/10/10 06:58:43;;;;;;;1999.90;999.90;;;;;;;;;;5065703;28;20190;-62
2023/10/10 07:01:12;;;;;;;1999.90;999.90;;;;;;;;;;5065532;28;20203;-64
2023/10/10 07:03:46;;;;;;;1999.90;999.90;;;;;;;;;;5065056;28;20213;-59
2023/10/10 07:06:13;;;;;;;1999.90;999.90;;;;;;;;;;5065792;28;20191;-61
2023/10/10 07:08:41;;;;;;;1999.90;999.90;;;;;;;;;;5065659;28;20226;-63
2023/10/10 07:11:19;;;;;;;1999.90;999.90;;;;;;;;;;5065080;28;20195;-60
2023/10/10 07:13:58;;;;;;;1999.90;999.90;;;;;;;;;;5065136;28;20547;-61
2023/10/10 07:16:26;;;;;;;1999.90;999.90;;;;;;;;;;5065112;28;20167;-62
2023/10/10 07:18:56;;;;;;;1999.90;999.90;;;;;;;;;;5065351;28;20199;-59
2023/10/10 07:21:30;;;;;;;1999.90;999.90;;;;;;;;;;5065328;28;20616;-59
2023/10/10 07:24:05;;;;;;;1999.90;999.90;;;;;;;;;;5064395;28;20237;-62
2023/10/10 07:26:41;;;;;;;1999.90;999.90;;;;;;;;;;5065668;28;20191;-60
2023/10/10 07:32:16;;;;;;;1999.90;999.90;;;;;;;;;;5124990;27;20816;-65
2023/10/10 07:34:49;;;;;;;1999.90;999.90;;;;;;;;;;5125445;27;20279;-64
2023/10/10 07:37:16;;;;;;;1999.90;999.90;;;;;;;;;;5106580;27;20186;-65
2023/10/10 07:39:56;;;;;;;1999.90;999.90;;;;;;;;;;5105219;28;20737;-60
2023/10/10 07:42:29;;;;;;;1999.90;999.90;;;;;;;;;;5103516;28;20177;-62
2023/10/10 07:44:56;;;;;;;1999.90;999.90;;;;;;;;;;5104727;28;20198;-65
2023/10/10 07:47:27;;;;;;;1999.90;999.90;;;;;;;;;;5104237;28;20197;-60
2023/10/10 07:49:55;;;;;;;1999.90;999.90;;;;;;;;;;5103881;28;20200;-63
2023/10/10 07:52:22;;;;;;;1999.90;999.90;;;;;;;;;;5104658;28;20229;-60
2023/10/10 07:54:53;;;;;;;1999.90;999.90;;;;;;;;;;5103921;28;20227;-60
2023/10/10 07:57:26;;;;;;;1999.90;999.90;;;;;;;;;;5109753;28;20581;-63
2023/10/10 07:59:56;;;;;;;1999.90;999.90;;;;;;;;;;5124009;27;20272;-63
2023/10/10 08:02:31;;;;;;;1999.90;999.90;;;;;;;;;;5124767;27;20531;-64
2023/10/10 08:05:09;;;;;;;1999.90;999.90;;;;;;;;;;5124588;27;20642;-64
2023/10/10 08:07:36;;;;;;;1999.90;999.90;;;;;;;;;;5124234;27;20865;-62
2023/10/10 08:10:13;;;;;;;1999.90;999.90;;;;;;;;;;5124589;27;20231;-60
2023/10/10 08:12:42;;;;;;;1999.90;999.90;;;;;;;;;;5122164;28;20198;-64
2023/10/10 08:15:25;;;;;;;1999.90;999.90;;;;;;;;;;5124508;27;20199;-63
2023/10/10 08:17:53;;;;;;;1999.90;999.90;;;;;;;;;;5124156;27;20181;-64
2023/10/10 08:21:08;;;;;;;1999.90;999.90;;;;;;;;;;5122736;28;20256;-63
2023/10/10 08:23:25;;;;;;;1999.90;999.90;;;;;;;;;;5123936;28;20759;-60
2023/10/10 08:25:53;;;;;;;1999.90;999.90;;;;;;;;;;5122208;28;20227;-60
2023/10/10 08:28:21;;;;;;;1999.90;999.90;;;;;;;;;;5114967;28;20247;-60
2023/10/10 08:30:49;;;;;;;1999.90;999.90;;;;;;;;;;5108730;28;20411;-60
2023/10/10 08:33:16;;;;;;;1999.90;999.90;;;;;;;;;;5121500;27;20205;-61
2023/10/10 08:35:46;;;;;;;1999.90;999.90;;;;;;;;;;5117307;27;20224;-60
2023/10/10 08:38:14;;;;;;;1999.90;999.90;;;;;;;;;;5101023;28;20239;-60
2023/10/10 08:40:41;;;;;;;1999.90;999.90;;;;;;;;;;5102423;28;20684;-63
2023/10/10 08:43:10;;;;;;;1999.90;999.90;;;;;;;;;;5088365;28;20328;-62
2023/10/10 08:45:43;;;;;;;1999.90;999.90;;;;;;;;;;5087225;28;20210;-61
2023/10/10 08:48:13;;;;;;;1999.90;999.90;;;;;;;;;;5088261;28;20186;-64
2023/10/10 08:50:41;;;;;;;1999.90;999.90;;;;;;;;;;5087859;28;20317;-61
2023/10/10 08:53:12;;;;;;;1999.90;999.90;;;;;;;;;;5088268;28;20194;-62
2023/10/10 08:55:40;;;;;;;1999.90;999.90;;;;;;;;;;5087681;28;20197;-60
2023/10/10 08:58:08;;;;;;;1999.90;999.90;;;;;;;;;;5099656;28;20240;-63
2023/10/10 09:00:37;;;;;;;1999.90;999.90;;;;;;;;;;5108252;28;20399;-63
2023/10/10 09:03:07;;;;;;;1999.90;999.90;;;;;;;;;;5107915;28;20194;-60
2023/10/10 09:05:36;;;;;;;1999.90;999.90;;;;;;;;;;5107602;28;20185;-62
2023/10/10 09:08:14;;;;;;;1999.90;999.90;;;;;;;;;;5107435;28;20221;-61
2023/10/10 09:10:45;;;;;;;1999.90;999.90;;;;;;;;;;5109023;28;20218;-61
2023/10/10 09:13:13;;;;;;;1999.90;999.90;;;;;;;;;;5106867;28;20190;-63
2023/10/10 09:15:54;;;;;;;1999.90;999.90;;;;;;;;;;5107395;28;20220;-60
2023/10/10 09:18:23;;;;;;;1999.90;999.90;;;;;;;;;;5108193;28;20672;-63
2023/10/10 09:20:53;;;;;;;1999.90;999.90;;;;;;;;;;5108184;28;20200;-66
2023/10/10 09:23:24;;;;;;;1999.90;999.90;;;;;;;;;;5106667;28;20200;-63
2023/10/10 09:26:04;;;;;;;1999.90;999.90;;;;;;;;;;5107474;28;20191;-61
2023/10/10 09:28:44;;;;;;;1999.90;999.90;;;;;;;;;;5108190;28;20540;-60
2023/10/10 09:31:20;;;;;;;1999.90;999.90;;;;;;;;;;5107123;28;20237;-62
2023/10/10 09:33:54;;;;;;;1999.90;999.90;;;;;;;;;;5107143;28;20246;-61
2023/10/10 09:36:26;;;;;;;1999.90;999.90;;;;;;;;;;5098072;28;20605;-60
2023/10/10 09:38:57;;;;;;;1999.90;999.90;;;;;;;;;;5086650;28;20651;-61
2023/10/10 09:41:36;;;;;;;1999.90;999.90;;;;;;;;;;5087896;28;20218;-61
2023/10/10 09:44:49;;;;;;;1999.90;999.90;;;;;;;;;;5086398;28;20181;-60
2023/10/10 09:47:36;;;;;;;1999.90;999.90;;;;;;;;;;5084511;28;20205;-61
2023/10/10 09:52:50;;;;;;;1999.90;999.90;;;;;;;;;;5086196;28;20213;-63
2023/10/10 09:55:39;;;;;;;1999.90;999.90;;;;;;;;;;5085724;28;20697;-61
2023/10/10 09:58:24;;;;;;;1999.90;999.90;;;;;;;;;;5097349;28;20205;-63
2023/10/10 10:00:52;;;;;;;1999.90;999.90;;;;;;;;;;5106993;28;20193;-67
2023/10/10 10:09:08;;;;;;;1999.90;999.90;;;;;;;;;;5106155;28;20202;-59
2023/10/10 10:11:43;;;;;;;1999.90;999.90;;;;;;;;;;5107673;28;20206;-61
2023/10/10 10:14:17;;;;;;;1999.90;999.90;;;;;;;;;;5106153;28;20620;-59
2023/10/10 10:16:48;;;;;;;1999.90;999.90;;;;;;;;;;5105355;28;20199;-60
2023/10/10 10:19:17;;;;;;;1999.90;999.90;;;;;;;;;;5106481;28;20193;-67
2023/10/10 10:21:53;;;;;;;1999.90;999.90;;;;;;;;;;5106400;28;20247;-60
2023/10/10 10:24:29;;;;;;;1999.90;999.90;;;;;;;;;;5106819;28;20232;-64
2023/10/10 10:27:23;;;;;;;1999.90;999.90;;;;;;;;;;5106442;28;20257;-60
2023/10/10 10:29:54;;;;;;;1999.90;999.90;;;;;;;;;;5106824;28;20651;-62
2023/10/10 10:32:23;;;;;;;1999.90;999.90;;;;;;;;;;5106109;28;20233;-63
2023/10/10 10:34:56;;;;;;;1999.90;999.90;;;;;;;;;;5106180;28;20699;-63
2023/10/10 10:37:23;;;;;;;1999.90;999.90;;;;;;;;;;5087952;28;20193;-59
2023/10/10 10:42:53;;;;;;;1999.90;999.90;;;;;;;;;;5043067;28;20230;-68
2023/10/10 10:45:38;;;;;;;1999.90;999.90;;;;;;;;;;5070558;28;20205;-59
2023/10/10 10:48:08;;;;;;;1999.90;999.90;;;;;;;;;;5085659;28;20578;-60
2023/10/10 10:50:43;;;;;;;1999.90;999.90;;;;;;;;;;5086947;28;20222;-62
2023/10/10 10:53:31;;;;;;;1999.90;999.90;;;;;;;;;;5084479;28;20186;-65
2023/10/10 11:01:36;;;;;;;1999.90;999.90;;;;;;;;;;5101996;28;20208;-67
2023/10/10 11:04:05;;;;;;;1999.90;999.90;;;;;;;;;;5106323;28;20178;-62
2023/10/10 11:06:33;;;;;;;1999.90;999.90;;;;;;;;;;5106394;28;20240;-70
2023/10/10 11:09:09;;;;;;;1999.90;999.90;;;;;;;;;;5104741;28;20196;-74
2023/10/10 11:11:40;;;;;;;1999.90;999.90;;;;;;;;;;5107079;28;20228;-60
2023/10/10 11:14:18;;;;;;;1999.90;999.90;;;;;;;;;;5106082;28;20194;-61
2023/10/10 11:16:56;;;;;;;1999.90;999.90;;;;;;;;;;5107472;28;20200;-80
2023/10/10 11:19:38;;;;;;;1999.90;999.90;;;;;;;;;;5107605;28;20185;-59
2023/10/10 11:22:12;;;;;;;1999.90;999.90;;;;;;;;;;5108100;28;20185;-75
2023/10/10 11:24:45;;;;;;;1999.90;999.90;;;;;;;;;;5106966;28;20189;-65
2023/10/10 11:27:21;;;;;;;1999.90;999.90;;;;;;;;;;5105818;28;20216;-66
2023/10/10 11:29:50;;;;;;;1999.90;999.90;;;;;;;;;;5107332;28;20255;-59
2023/10/10 11:32:24;;;;;;;1999.90;999.90;;;;;;;;;;5105512;28;20233;-76
2023/10/10 11:34:55;;;;;;;1999.90;999.90;;;;;;;;;;5106466;28;20245;-67
2023/10/10 11:37:26;;;;;;;1999.90;999.90;;;;;;;;;;5087802;28;20183;-62
2023/10/10 11:39:57;;;;;;;1999.90;999.90;;;;;;;;;;5085852;28;20207;-65
2023/10/10 11:42:26;;;;;;;1999.90;999.90;;;;;;;;;;5101646;28;20189;-71
2023/10/10 11:44:54;;;;;;;1999.90;999.90;;;;;;;;;;5104381;28;20212;-73
2023/10/10 11:47:25;;;;;;;1999.90;999.90;;;;;;;;;;5107937;28;20679;-65
2023/10/10 11:50:01;;;;;;;1999.90;999.90;;;;;;;;;;5107711;28;20182;-73
2023/10/10 11:52:30;;;;;;;1999.90;999.90;;;;;;;;;;5103658;28;20240;-60
2023/10/10 11:55:00;;;;;;;1999.90;999.90;;;;;;;;;;5106541;28;20193;-70
2023/10/10 11:57:29;;;;;;;1999.90;999.90;;;;;;;;;;5104594;28;20190;-64
2023/10/10 11:59:59;;;;;;;1999.90;999.90;;;;;;;;;;5106841;28;20270;-65
2023/10/10 12:02:39;;;;;;;1999.90;999.90;;;;;;;;;;5104936;28;20984;-61
2023/10/10 12:05:35;;;;;;;1999.90;999.90;;;;;;;;;;5106649;28;20221;-64
2023/10/10 12:07:58;;;;;;;1999.90;999.90;;;;;;;;;;5107477;28;20262;-72
2023/10/10 12:10:47;;;;;;;1999.90;999.90;;;;;;;;;;5105708;28;20273;-62
2023/10/10 12:13:33;;;;;;;1999.90;999.90;;;;;;;;;;5106733;28;20214;-60
2023/10/10 12:16:00;;;;;;;1999.90;999.90;;;;;;;;;;5106021;28;20189;-58
2023/10/10 12:18:31;;;;;;;1999.90;999.90;;;;;;;;;;5107747;28;20193;-60
2023/10/10 12:21:01;;;;;;;1999.90;999.90;;;;;;;;;;5109809;28;20647;-77
2023/10/10 12:23:28;;;;;;;1999.90;999.90;;;;;;;;;;5108007;28;20221;-59
2023/10/10 12:25:55;;;;;;;1999.90;999.90;;;;;;;;;;5108381;28;20275;-64
2023/10/10 12:28:25;;;;;;;1999.90;999.90;;;;;;;;;;5108804;28;20706;-59
2023/10/10 12:30:56;;;;;;;1999.90;999.90;;;;;;;;;;5109156;28;20233;-61
2023/10/10 12:33:24;;;;;;;1999.90;999.90;;;;;;;;;;5109609;28;20202;-68
2023/10/10 12:35:53;;;;;;;1999.90;999.90;;;;;;;;;;5103428;28;20194;-71
2023/10/10 12:38:23;;;;;;;1999.90;999.90;;;;;;;;;;5089613;28;20289;-62
2023/10/10 12:40:51;;;;;;;1999.90;999.90;;;;;;;;;;5088965;28;20195;-76
2023/10/10 12:43:18;;;;;;;1999.90;999.90;;;;;;;;;;5089320;28;20186;-63
2023/10/10 12:45:47;;;;;;;1999.90;999.90;;;;;;;;;;5105044;28;20196;-61
2023/10/10 12:48:14;;;;;;;1999.90;999.90;;;;;;;;;;5109779;28;20186;-73
2023/10/10 12:50:42;;;;;;;1999.90;999.90;;;;;;;;;;5110918;28;20194;-74
2023/10/10 12:53:15;;;;;;;1999.90;999.90;;;;;;;;;;5113684;28;20252;-71
2023/10/10 12:55:48;;;;;;;1999.90;999.90;;;;;;;;;;5101078;28;20273;-67
2023/10/10 12:58:16;;;;;;;1999.90;999.90;;;;;;;;;;5102696;28;20198;-71
2023/10/10 13:00:50;;;;;;;1999.90;999.90;;;;;;;;;;5110163;28;20293;-79
2023/10/10 13:03:23;;;;;;;1999.90;999.90;;;;;;;;;;5107736;28;20698;-75
2023/10/10 13:05:52;;;;;;;1999.90;999.90;;;;;;;;;;5109209;28;20360;-72
2023/10/10 13:08:24;;;;;;;1999.90;999.90;;;;;;;;;;5109887;28;20196;-77
2023/10/10 13:10:54;;;;;;;1999.90;999.90;;;;;;;;;;5107171;28;20567;-75
2023/10/10 13:13:31;;;;;;;1999.90;999.90;;;;;;;;;;5109385;28;20211;-61
2023/10/10 13:16:22;;;;;;;1999.90;999.90;;;;;;;;;;5109326;28;20486;-80
2023/10/10 13:18:49;;;;;;;1999.90;999.90;;;;;;;;;;5108677;27;20258;-62
2023/10/10 13:21:19;;;;;;;1999.90;999.90;;;;;;;;;;5109045;28;20189;-73
2023/10/10 13:23:47;;;;;;;1999.90;999.90;;;;;;;;;;5107552;28;20281;-75
2023/10/10 13:26:16;;;;;;;1999.90;999.90;;;;;;;;;;5109587;28;20294;-78
2023/10/10 13:28:45;;;;;;;1999.90;999.90;;;;;;;;;;5108268;28;21085;-72
2023/10/10 13:31:13;;;;;;;1999.90;999.90;;;;;;;;;;5107467;28;20401;-67
2023/10/10 13:33:40;;;;;;;1999.90;999.90;;;;;;;;;;5107183;28;20218;-68
2023/10/10 13:36:11;;;;;;;1999.90;999.90;;;;;;;;;;5096899;28;20194;-65
2023/10/10 13:38:39;;;;;;;1999.90;999.90;;;;;;;;;;5108148;28;20941;-72
2023/10/10 13:41:08;;;;;;;1999.90;999.90;;;;;;;;;;5107222;28;20190;-66
2023/10/10 13:43:36;;;;;;;1999.90;999.90;;;;;;;;;;5107813;28;20276;-67
2023/10/10 13:46:05;;;;;;;1999.90;999.90;;;;;;;;;;5107170;28;20719;-70
2023/10/10 13:48:36;;;;;;;1999.90;999.90;;;;;;;;;;5107351;28;20579;-69
2023/10/10 13:51:07;;;;;;;1999.90;999.90;;;;;;;;;;5106098;28;20198;-69
2023/10/10 13:53:35;;;;;;;1999.90;999.90;;;;;;;;;;5106358;28;20205;-64
2023/10/10 13:56:03;;;;;;;1999.90;999.90;;;;;;;;;;5107743;28;20192;-59
2023/10/10 13:58:32;;;;;;;1999.90;999.90;;;;;;;;;;5106155;28;20190;-68
2023/10/10 14:01:14;;;;;;;1999.90;999.90;;;;;;;;;;5106246;28;20208;-68
2023/10/10 14:03:45;;;;;;;1999.90;999.90;;;;;;;;;;5105974;28;20178;-60
2023/10/10 14:06:13;;;;;;;1999.90;999.90;;;;;;;;;;5107337;28;20193;-59
2023/10/10 14:08:44;;;;;;;1999.90;999.90;;;;;;;;;;5106850;28;20238;-58
2023/10/10 14:11:20;;;;;;;1999.90;999.90;;;;;;;;;;5106951;28;20185;-59
2023/10/10 14:13:49;;;;;;;1999.90;999.90;;;;;;;;;;5107080;28;20451;-61
2023/10/10 14:16:17;;;;;;;1999.90;999.90;;;;;;;;;;5106537;28;20186;-70
2023/10/10 14:18:47;;;;;;;1999.90;999.90;;;;;;;;;;5107305;28;20197;-70
2023/10/10 14:21:16;;;;;;;1999.90;999.90;;;;;;;;;;5107434;28;20218;-67
2023/10/10 14:23:45;;;;;;;1999.90;999.90;;;;;;;;;;5106220;28;20202;-63
2023/10/10 14:26:18;;;;;;;1999.90;999.90;;;;;;;;;;5107308;28;20192;-69
2023/10/10 14:28:50;;;;;;;1999.90;999.90;;;;;;;;;;5105891;28;20197;-61
2023/10/10 14:31:20;;;;;;;1999.90;999.90;;;;;;;;;;5105609;28;20230;-65
2023/10/10 14:33:48;;;;;;;1999.90;999.90;;;;;;;;;;5105874;28;20213;-66
2023/10/10 14:36:16;;;;;;;1999.90;999.90;;;;;;;;;;5095970;28;20526;-70
2023/10/10 14:38:45;;;;;;;1999.90;999.90;;;;;;;;;;5085980;28;20281;-62
2023/10/10 14:41:16;;;;;;;1999.90;999.90;;;;;;;;;;5085598;28;21046;-67
2023/10/10 14:43:47;;;;;;;1999.90;999.90;;;;;;;;;;5090879;28;20194;-67
2023/10/10 14:46:17;;;;;;;1999.90;999.90;;;;;;;;;;5105826;28;20223;-67
2023/10/10 14:48:48;;;;;;;1999.90;999.90;;;;;;;;;;5106689;28;20228;-65
2023/10/10 14:51:18;;;;;;;1999.90;999.90;;;;;;;;;;5105992;28;20189;-66
2023/10/10 14:53:51;;;;;;;1999.90;999.90;;;;;;;;;;5106362;28;20265;-70
2023/10/10 14:56:22;;;;;;;1999.90;999.90;;;;;;;;;;5106807;28;20185;-67
2023/10/10 14:58:50;;;;;;;1999.90;999.90;;;;;;;;;;5105327;28;20253;-63
2023/10/10 15:01:20;;;;;;;1999.90;999.90;;;;;;;;;;5106604;28;20194;-70
2023/10/10 15:03:50;;;;;;;1999.90;999.90;;;;;;;;;;5105399;28;20689;-68
2023/10/10 15:06:17;;;;;;;1999.90;999.90;;;;;;;;;;5106904;28;20196;-68
2023/10/10 15:08:44;;;;;;;1999.90;999.90;;;;;;;;;;5105603;28;20194;-66
2023/10/10 15:11:12;;;;;;;1999.90;999.90;;;;;;;;;;5104299;28;20225;-62
2023/10/10 15:13:41;;;;;;;1999.90;999.90;;;;;;;;;;5095453;28;20222;-71
2023/10/10 15:16:11;;;;;;;1999.90;999.90;;;;;;;;;;5092543;28;20178;-61
2023/10/10 15:18:38;;;;;;;1999.90;999.90;;;;;;;;;;5092096;28;20191;-66
2023/10/10 15:21:07;;;;;;;1999.90;999.90;;;;;;;;;;5095247;28;20263;-61
2023/10/10 15:23:35;;;;;;;1999.90;999.90;;;;;;;;;;5097904;28;20263;-66
2023/10/10 15:26:11;;;;;;;1999.90;999.90;;;;;;;;;;5093525;28;20271;-67
2023/10/10 15:28:40;;;;;;;1999.90;999.90;;;;;;;;;;5092336;28;20194;-62
2023/10/10 15:31:08;;;;;;;1999.90;999.90;;;;;;;;;;5091006;28;20233;-66
2023/10/10 15:33:36;;;;;;;1999.90;999.90;;;;;;;;;;5084584;28;20692;-71
2023/10/10 15:36:06;;;;;;;1999.90;999.90;;;;;;;;;;5094476;28;20197;-68
2023/10/10 15:38:35;;;;;;;1999.90;999.90;;;;;;;;;;5084949;28;20201;-65
2023/10/10 15:41:16;;;;;;;1999.90;999.90;;;;;;;;;;5085607;28;20190;-59
2023/10/10 15:43:46;;;;;;;1999.90;999.90;;;;;;;;;;5085102;28;20477;-64
2023/10/10 15:46:14;;;;;;;1999.90;999.90;;;;;;;;;;5084765;28;20234;-68
2023/10/10 15:48:48;;;;;;;1999.90;999.90;;;;;;;;;;5084101;28;20198;-66
2023/10/10 15:51:15;;;;;;;1999.90;999.90;;;;;;;;;;5083418;28;20236;-68
2023/10/10 15:53:44;;;;;;;1999.90;999.90;;;;;;;;;;5089032;28;20225;-66
2023/10/10 15:56:13;;;;;;;1999.90;999.90;;;;;;;;;;5088716;28;20197;-68
2023/10/10 15:58:43;;;;;;;1999.90;999.90;;;;;;;;;;5104864;28;20270;-62
2023/10/10 16:01:14;;;;;;;1999.90;999.90;;;;;;;;;;5109959;28;20190;-59
2023/10/10 16:03:44;;;;;;;1999.90;999.90;;;;;;;;;;5108954;28;20201;-64
2023/10/10 16:06:12;;;;;;;1999.90;999.90;;;;;;;;;;5109957;28;20178;-58
2023/10/10 16:08:39;;;;;;;1999.90;999.90;;;;;;;;;;5109037;28;20519;-57
2023/10/10 16:11:08;;;;;;;1999.90;999.90;;;;;;;;;;5110062;28;20190;-64
2023/10/10 16:13:36;;;;;;;1999.90;999.90;;;;;;;;;;5109056;28;20286;-58
2023/10/10 16:16:07;;;;;;;1999.90;999.90;;;;;;;;;;5106911;28;20612;-65